Terminal Aerodrome Forecast
Issued by NWS

Home | Current Version | Previous Version | Text Only | Print | Product List | Glossary On
Versions: 1 2 3 4 5 6 7 8 9 10 11 12 13 14 15 16 17 18
000
FTUS43 KILX 091730
TAFBMI
TAF
KBMI 091730Z 0918/1018 32016G24KT 4SM -SN BR BKN015
      TEMPO 0918/0919 2SM -SN BR
     FM092000 32016G24KT P6SM VCSH BKN025
     FM092300 31013KT P6SM BKN025=

USA.gov is the U.S. government's official web portal to all federal, state and local government web resources and services.